Terminal Aerodrome Forecast
Issued by NWS

Home | Current Version | Previous Version | Text Only | Print | Product List | Glossary On
Versions: 1 2 3 4 5 6 7 8 9 10 11 12 13 14
000
FTUS45 KTFX 261748 RRA
TAFHVR
TAF
KHVR 261748Z 2618/2718 05008KT P6SM FEW070 BKN250
     FM262000 17010G20KT P6SM SCT070
     FM270200 19010G20KT P6SM VCTS SCT090CB BKN100
     FM270500 17008KT P6SM SCT070
     FM271200 26010KT P6SM VCSH SCT040 BKN100
     FM271700 30010G20KT P6SM VCSH BKN050=

USA.gov is the U.S. government's official web portal to all federal, state and local government web resources and services.